Decoded Metar for SBNF (NAVEGANTES in BRAZIL) (IATA:NVT) | Meteo·Mobile Aviation Weather
aviador You're here:

SBNF Decoded Metar

NAVEGANTES in BRAZIL
Report Time2019-04-20 10:00:00
UTC Time2019-04-20 10:25:41
Flight Rules vfr VFR
Wind250° at 07 kt
W.Decomp.*RWY 25: 6.7 kt HW 2.0 kt RCW
Visibility9999 m
Phenomena:N/A
Clouds:N/A
CeilingNone
Temp20°C (ISA +5)
Dew Point20°C (100% RH)
QNH1013 hPa
Density Alt912 ft
Elevation16 ft
Report Wrong Elevation
Raw Report
METAR SBNF 201000Z 25007KT CAVOK 20/20 Q1013=

Extra information for SBNF:More info

Metar Taf Metar & Taf Last 4 Metars F.Rules Stats Wind Profile Meteogram Temp Stats Airport Information Weather charts Add Link Nearby VenuesMetar ALERT Operation Metar Decoded Social comments